sensor_id;sensor_type;location;lat;lon;timestamp;pressure;altitude;pressure_sealevel;temperature;humidity
29903;BME280;30288;50.514;9.678;2023-04-23T00:00:28;97961.22;;;12.56;100.00
29903;BME280;30288;50.514;9.678;2023-04-23T00:02:35;97952.94;;;12.54;100.00
29903;BME280;30288;50.514;9.678;2023-04-23T00:04:49;97951.13;;;12.56;100.00
29903;BME280;30288;50.514;9.678;2023-04-23T00:06:56;97947.88;;;12.54;100.00
29903;BME280;30288;50.514;9.678;2023-04-23T00:09:03;97947.13;;;12.52;100.00
29903;BME280;30288;50.514;9.678;2023-04-23T00:11:11;97942.28;;;12.47;100.00
29903;BME280;30288;50.514;9.678;2023-04-23T00:13:17;97936.69;;;12.41;100.00
29903;BME280;30288;50.514;9.678;2023-04-23T00:15:23;97941.91;;;12.38;100.00
29903;BME280;30288;50.514;9.678;2023-04-23T00:17:28;97928.69;;;12.33;100.00
29903;BME280;30288;50.514;9.678;2023-04-23T00:19:33;97926.91;;;12.35;100.00
29903;BME280;30288;50.514;9.678;2023-04-23T00:21:41;97933.88;;;12.30;100.00
29903;BME280;30288;50.514;9.678;2023-04-23T00:23:46;97934.84;;;12.27;100.00
29903;BME280;30288;50.514;9.678;2023-04-23T00:25:51;97925.63;;;12.26;100.00
29903;BME280;30288;50.514;9.678;2023-04-23T00:27:56;97931.59;;;12.25;100.00
29903;BME280;30288;50.514;9.678;2023-04-23T00:30:01;97927.47;;;12.22;100.00
29903;BME280;30288;50.514;9.678;2023-04-23T00:32:08;97923.31;;;12.21;100.00
29903;BME280;30288;50.514;9.678;2023-04-23T00:34:13;97929.13;;;12.23;100.00
29903;BME280;30288;50.514;9.678;2023-04-23T00:36:18;97921.56;;;12.23;100.00
29903;BME280;30288;50.514;9.678;2023-04-23T00:38:26;97923.91;;;12.26;100.00
29903;BME280;30288;50.514;9.678;2023-04-23T00:40:31;97920.50;;;12.27;100.00
29903;BME280;30288;50.514;9.678;2023-04-23T00:42:38;97925.56;;;12.27;100.00
29903;BME280;30288;50.514;9.678;2023-04-23T00:44:43;97918.44;;;12.36;100.00
29903;BME280;30288;50.514;9.678;2023-04-23T00:46:49;97924.25;;;12.38;100.00
29903;BME280;30288;50.514;9.678;2023-04-23T00:48:54;97921.56;;;12.41;100.00
29903;BME280;30288;50.514;9.678;2023-04-23T00:51:02;97919.78;;;12.43;100.00
29903;BME280;30288;50.514;9.678;2023-04-23T00:53:08;97919.63;;;12.46;100.00
29903;BME280;30288;50.514;9.678;2023-04-23T00:55:16;97919.63;;;12.46;100.00
29903;BME280;30288;50.514;9.678;2023-04-23T00:57:23;97915.25;;;12.49;100.00
29903;BME280;30288;50.514;9.678;2023-04-23T00:59:29;97922.03;;;12.49;100.00
29903;BME280;30288;50.514;9.678;2023-04-23T01:01:35;97922.91;;;12.48;100.00
29903;BME280;30288;50.514;9.678;2023-04-23T01:03:42;97911.22;;;12.45;100.00
29903;BME280;30288;50.514;9.678;2023-04-23T01:05:48;97913.69;;;12.47;100.00
29903;BME280;30288;50.514;9.678;2023-04-23T01:07:54;97914.56;;;12.46;100.00
29903;BME280;30288;50.514;9.678;2023-04-23T01:09:59;97906.28;;;12.44;100.00
29903;BME280;30288;50.514;9.678;2023-04-23T01:12:09;97910.44;;;12.45;100.00
29903;BME280;30288;50.514;9.678;2023-04-23T01:14:14;97908.03;;;12.42;100.00
29903;BME280;30288;50.514;9.678;2023-04-23T01:16:20;97908.31;;;12.36;100.00
29903;BME280;30288;50.514;9.678;2023-04-23T01:18:26;97911.06;;;12.31;100.00
29903;BME280;30288;50.514;9.678;2023-04-23T01:20:32;97908.66;;;12.30;100.00
29903;BME280;30288;50.514;9.678;2023-04-23T01:22:42;97905.22;;;12.31;100.00
29903;BME280;30288;50.514;9.678;2023-04-23T01:24:48;97900.09;;;12.32;100.00
29903;BME280;30288;50.514;9.678;2023-04-23T01:26:54;97906.78;;;12.33;100.00
29903;BME280;30288;50.514;9.678;2023-04-23T01:29:00;97907.38;;;12.38;100.00
29903;BME280;30288;50.514;9.678;2023-04-23T01:31:06;97911.78;;;12.35;100.00
29903;BME280;30288;50.514;9.678;2023-04-23T01:33:12;97913.59;;;12.31;100.00
29903;BME280;30288;50.514;9.678;2023-04-23T01:35:18;97915.34;;;12.31;100.00
29903;BME280;30288;50.514;9.678;2023-04-23T01:37:26;97908.78;;;12.26;100.00
29903;BME280;30288;50.514;9.678;2023-04-23T01:39:35;97909.53;;;12.28;100.00
29903;BME280;30288;50.514;9.678;2023-04-23T01:41:40;97916.28;;;12.28;100.00
29903;BME280;30288;50.514;9.678;2023-04-23T01:43:46;97920.50;;;12.27;100.00
29903;BME280;30288;50.514;9.678;2023-04-23T01:45:51;97920.50;;;12.27;100.00
29903;BME280;30288;50.514;9.678;2023-04-23T01:47:57;97916.88;;;12.33;100.00
29903;BME280;30288;50.514;9.678;2023-04-23T01:50:05;97916.81;;;12.35;100.00
29903;BME280;30288;50.514;9.678;2023-04-23T01:52:10;97920.22;;;12.34;100.00
29903;BME280;30288;50.514;9.678;2023-04-23T01:54:16;97919.25;;;12.36;100.00
29903;BME280;30288;50.514;9.678;2023-04-23T01:56:27;97925.44;;;12.31;100.00
29903;BME280;30288;50.514;9.678;2023-04-23T01:58:35;97921.28;;;12.30;100.00
29903;BME280;30288;50.514;9.678;2023-04-23T02:00:40;97921.13;;;12.33;100.00
29903;BME280;30288;50.514;9.678;2023-04-23T02:02:45;97921.28;;;12.30;100.00
29903;BME280;30288;50.514;9.678;2023-04-23T02:04:53;97922.97;;;12.29;100.00
29903;BME280;30288;50.514;9.678;2023-04-23T02:06:58;97920.38;;;12.31;100.00
29903;BME280;30288;50.514;9.678;2023-04-23T02:09:03;97923.91;;;12.26;100.00
29903;BME280;30288;50.514;9.678;2023-04-23T02:11:09;97917.47;;;12.21;100.00
29903;BME280;30288;50.514;9.678;2023-04-23T02:13:17;97922.31;;;12.25;100.00
29903;BME280;30288;50.514;9.678;2023-04-23T02:15:22;97920.66;;;12.24;100.00
29903;BME280;30288;50.514;9.678;2023-04-23T02:17:27;97926.00;;;12.18;100.00
29903;BME280;30288;50.514;9.678;2023-04-23T02:19:33;97920.94;;;12.18;100.00
29903;BME280;30288;50.514;9.678;2023-04-23T02:21:38;97928.47;;;12.20;100.00
29903;BME280;30288;50.514;9.678;2023-04-23T02:23:43;97922.72;;;12.16;100.00
29903;BME280;30288;50.514;9.678;2023-04-23T02:25:49;97922.00;;;12.14;100.00
29903;BME280;30288;50.514;9.678;2023-04-23T02:27:54;97921.22;;;12.12;100.00
29903;BME280;30288;50.514;9.678;2023-04-23T02:30:05;97920.34;;;12.13;100.00
29903;BME280;30288;50.514;9.678;2023-04-23T02:32:11;97919.63;;;12.11;100.00
29903;BME280;30288;50.514;9.678;2023-04-23T02:34:16;97917.88;;;12.12;100.00
29903;BME280;30288;50.514;9.678;2023-04-23T02:36:22;97914.69;;;12.08;100.00
29903;BME280;30288;50.514;9.678;2023-04-23T02:38:27;97913.88;;;12.08;100.00
29903;BME280;30288;50.514;9.678;2023-04-23T02:40:32;97913.06;;;12.07;100.00
29903;BME280;30288;50.514;9.678;2023-04-23T02:42:37;97917.31;;;12.07;100.00
29903;BME280;30288;50.514;9.678;2023-04-23T02:44:45;97920.72;;;12.06;100.00
29903;BME280;30288;50.514;9.678;2023-04-23T02:46:53;97921.53;;;12.06;100.00
29903;BME280;30288;50.514;9.678;2023-04-23T02:48:58;97918.09;;;12.07;100.00
29903;BME280;30288;50.514;9.678;2023-04-23T02:51:04;97919.91;;;12.05;100.00
29903;BME280;30288;50.514;9.678;2023-04-23T02:53:09;97928.34;;;12.04;100.00
29903;BME280;30288;50.514;9.678;2023-04-23T02:55:15;97928.34;;;12.04;100.00
29903;BME280;30288;50.514;9.678;2023-04-23T02:57:20;97936.06;;;12.01;100.00
29903;BME280;30288;50.514;9.678;2023-04-23T02:59:25;97931.91;;;12.00;100.00
29903;BME280;30288;50.514;9.678;2023-04-23T03:01:30;97933.69;;;11.98;100.00
29903;BME280;30288;50.514;9.678;2023-04-23T03:03:39;97938.88;;;11.95;100.00
29903;BME280;30288;50.514;9.678;2023-04-23T03:05:44;97938.13;;;11.93;100.00
29903;BME280;30288;50.514;9.678;2023-04-23T03:07:50;97936.50;;;11.92;100.00
29903;BME280;30288;50.514;9.678;2023-04-23T03:09:55;97936.72;;;11.88;100.00
29903;BME280;30288;50.514;9.678;2023-04-23T03:12:00;97932.47;;;11.88;100.00
29903;BME280;30288;50.514;9.678;2023-04-23T03:14:06;97941.81;;;11.86;100.00
29903;BME280;30288;50.514;9.678;2023-04-23T03:16:12;97944.50;;;11.83;100.00
29903;BME280;30288;50.514;9.678;2023-04-23T03:18:21;97947.91;;;11.82;100.00
29903;BME280;30288;50.514;9.678;2023-04-23T03:20:31;97948.03;;;11.79;100.00
29903;BME280;30288;50.514;9.678;2023-04-23T03:22:36;97954.84;;;11.77;100.00
29903;BME280;30288;50.514;9.678;2023-04-23T03:24:41;97954.28;;;11.70;100.00
29903;BME280;30288;50.514;9.678;2023-04-23T03:26:47;97959.47;;;11.67;100.00
29903;BME280;30288;50.514;9.678;2023-04-23T03:28:52;97953.59;;;11.67;100.00
29903;BME280;30288;50.514;9.678;2023-04-23T03:30:58;97952.94;;;11.63;100.00
29903;BME280;30288;50.514;9.678;2023-04-23T03:33:03;97963.84;;;11.64;100.00
29903;BME280;30288;50.514;9.678;2023-04-23T03:35:09;97964.72;;;11.63;100.00
29903;BME280;30288;50.514;9.678;2023-04-23T03:37:20;97968.13;;;11.62;100.00
29903;BME280;30288;50.514;9.678;2023-04-23T03:39:26;97964.97;;;11.57;100.00
29903;BME280;30288;50.514;9.678;2023-04-23T03:41:31;97966.22;;;11.48;100.00
29903;BME280;30288;50.514;9.678;2023-04-23T03:43:37;97967.03;;;11.49;100.00
29903;BME280;30288;50.514;9.678;2023-04-23T03:46:07;97962.88;;;11.48;100.00
29903;BME280;30288;50.514;9.678;2023-04-23T03:48:15;97963.88;;;11.44;100.00
29903;BME280;30288;50.514;9.678;2023-04-23T03:50:22;97968.16;;;11.41;100.00
29903;BME280;30288;50.514;9.678;2023-04-23T03:52:43;97971.72;;;11.37;100.00
29903;BME280;30288;50.514;9.678;2023-04-23T03:54:58;97966.91;;;11.31;100.00
29903;BME280;30288;50.514;9.678;2023-04-23T03:57:09;97966.19;;;11.29;100.00
29903;BME280;30288;50.514;9.678;2023-04-23T03:59:37;97981.38;;;11.28;100.00
29903;BME280;30288;50.514;9.678;2023-04-23T04:01:43;97972.09;;;11.28;100.00
29903;BME280;30288;50.514;9.678;2023-04-23T04:03:49;97978.84;;;11.28;100.00
29903;BME280;30288;50.514;9.678;2023-04-23T04:05:57;97980.69;;;11.24;100.00
29903;BME280;30288;50.514;9.678;2023-04-23T04:08:04;97983.34;;;11.21;100.00
29903;BME280;30288;50.514;9.678;2023-04-23T04:10:10;97997.66;;;11.21;100.00
29903;BME280;30288;50.514;9.678;2023-04-23T04:12:17;97994.31;;;11.20;100.00
29903;BME280;30288;50.514;9.678;2023-04-23T04:14:22;97998.56;;;11.18;100.00
29903;BME280;30288;50.514;9.678;2023-04-23T04:16:27;97995.44;;;11.13;100.00
29903;BME280;30288;50.514;9.678;2023-04-23T04:18:33;97993.09;;;11.09;100.00
29903;BME280;30288;50.514;9.678;2023-04-23T04:20:38;97996.59;;;11.06;100.00
29903;BME280;30288;50.514;9.678;2023-04-23T04:22:46;97998.19;;;11.07;100.00
29903;BME280;30288;50.514;9.678;2023-04-23T04:24:54;97996.69;;;11.03;100.00
29903;BME280;30288;50.514;9.678;2023-04-23T04:27:00;97997.72;;;10.99;100.00
29903;BME280;30288;50.514;9.678;2023-04-23T04:29:06;97997.66;;;11.01;100.00
29903;BME280;30288;50.514;9.678;2023-04-23T04:31:12;98008.56;;;11.01;100.00
29903;BME280;30288;50.514;9.678;2023-04-23T04:33:17;98003.38;;;11.04;100.00
29903;BME280;30288;50.514;9.678;2023-04-23T04:35:22;98005.94;;;11.03;100.00
29903;BME280;30288;50.514;9.678;2023-04-23T04:37:28;98002.75;;;10.99;100.00
29903;BME280;30288;50.514;9.678;2023-04-23T04:39:33;98003.63;;;10.98;100.00
29903;BME280;30288;50.514;9.678;2023-04-23T04:41:41;98005.16;;;11.02;100.00
29903;BME280;30288;50.514;9.678;2023-04-23T04:43:46;98005.94;;;11.03;100.00
29903;BME280;30288;50.514;9.678;2023-04-23T04:45:51;98003.38;;;11.04;100.00
29903;BME280;30288;50.514;9.678;2023-04-23T04:47:56;98010.81;;;11.07;100.00
29903;BME280;30288;50.514;9.678;2023-04-23T04:50:02;98003.25;;;11.07;100.00
29903;BME280;30288;50.514;9.678;2023-04-23T04:52:07;97999.84;;;11.08;100.00
29903;BME280;30288;50.514;9.678;2023-04-23T04:54:12;98003.13;;;11.10;100.00
29903;BME280;30288;50.514;9.678;2023-04-23T04:56:18;97992.91;;;11.13;100.00
29903;BME280;30288;50.514;9.678;2023-04-23T04:58:27;97999.47;;;11.17;100.00
29903;BME280;30288;50.514;9.678;2023-04-23T05:00:33;97996.19;;;11.15;100.00
29903;BME280;30288;50.514;9.678;2023-04-23T05:02:39;98000.22;;;11.19;100.00
29903;BME280;30288;50.514;9.678;2023-04-23T05:04:48;97992.66;;;11.19;100.00
29903;BME280;30288;50.514;9.678;2023-04-23T05:06:53;97987.47;;;11.22;100.00
29903;BME280;30288;50.514;9.678;2023-04-23T05:08:59;97989.81;;;11.27;100.00
29903;BME280;30288;50.514;9.678;2023-04-23T05:11:04;97987.09;;;11.31;100.00
29903;BME280;30288;50.514;9.678;2023-04-23T05:13:10;97991.06;;;11.37;100.00
29903;BME280;30288;50.514;9.678;2023-04-23T05:15:18;97993.53;;;11.38;100.00
29903;BME280;30288;50.514;9.678;2023-04-23T05:17:23;98010.28;;;11.39;100.00
29903;BME280;30288;50.514;9.678;2023-04-23T05:19:29;98012.00;;;11.39;100.00
29903;BME280;30288;50.514;9.678;2023-04-23T05:21:35;98008.50;;;11.41;100.00
29903;BME280;30288;50.514;9.678;2023-04-23T05:23:40;98003.47;;;11.41;100.00
29903;BME280;30288;50.514;9.678;2023-04-23T05:25:45;98013.53;;;11.41;100.00
29903;BME280;30288;50.514;9.678;2023-04-23T05:27:52;98010.28;;;11.39;100.00
29903;BME280;30288;50.514;9.678;2023-04-23T05:29:57;98017.72;;;11.43;100.00
29903;BME280;30288;50.514;9.678;2023-04-23T05:32:05;98021.72;;;11.47;100.00
29903;BME280;30288;50.514;9.678;2023-04-23T05:34:11;98026.91;;;11.44;100.00
29903;BME280;30288;50.514;9.678;2023-04-23T05:36:16;98036.88;;;11.47;100.00
29903;BME280;30288;50.514;9.678;2023-04-23T05:38:22;98033.66;;;11.43;100.00
29903;BME280;30288;50.514;9.678;2023-04-23T05:40:27;98033.84;;;11.38;100.00
29903;BME280;30288;50.514;9.678;2023-04-23T05:42:34;98033.22;;;11.33;100.00
29903;BME280;30288;50.514;9.678;2023-04-23T05:44:40;98037.41;;;11.34;100.00
29903;BME280;30288;50.514;9.678;2023-04-23T05:46:46;98028.25;;;11.32;100.00
29903;BME280;30288;50.514;9.678;2023-04-23T05:48:54;98034.50;;;11.23;100.00
29903;BME280;30288;50.514;9.678;2023-04-23T05:50:59;98027.69;;;11.25;100.00
29903;BME280;30288;50.514;9.678;2023-04-23T05:53:04;98027.94;;;11.19;100.00
29903;BME280;30288;50.514;9.678;2023-04-23T05:55:10;98031.47;;;11.15;100.00
29903;BME280;30288;50.514;9.678;2023-04-23T05:57:16;98033.22;;;11.13;100.00
29903;BME280;30288;50.514;9.678;2023-04-23T05:59:22;98036.53;;;11.15;100.00
29903;BME280;30288;50.514;9.678;2023-04-23T06:01:27;98034.94;;;11.13;100.00
29903;BME280;30288;50.514;9.678;2023-04-23T06:03:33;98022.53;;;11.08;100.00
29903;BME280;30288;50.514;9.678;2023-04-23T06:05:42;98031.97;;;11.03;100.00
29903;BME280;30288;50.514;9.678;2023-04-23T06:07:47;98029.44;;;11.03;100.00
29903;BME280;30288;50.514;9.678;2023-04-23T06:09:52;98028.56;;;11.04;100.00
29903;BME280;30288;50.514;9.678;2023-04-23T06:11:58;98027.47;;;11.11;100.00
29903;BME280;30288;50.514;9.678;2023-04-23T06:14:04;98027.94;;;11.19;100.00
29903;BME280;30288;50.514;9.678;2023-04-23T06:16:09;98027.41;;;11.31;100.00
29903;BME280;30288;50.514;9.678;2023-04-23T06:18:15;98030.06;;;11.49;100.00
29903;BME280;30288;50.514;9.678;2023-04-23T06:20:20;98028.38;;;11.68;100.00
29903;BME280;30288;50.514;9.678;2023-04-23T06:22:28;98023.59;;;11.82;100.00
29903;BME280;30288;50.514;9.678;2023-04-23T06:24:33;98026.16;;;11.99;100.00
29903;BME280;30288;50.514;9.678;2023-04-23T06:26:38;98024.72;;;12.12;100.00
29903;BME280;30288;50.514;9.678;2023-04-23T06:28:49;98032.69;;;12.22;100.00
29903;BME280;30288;50.514;9.678;2023-04-23T06:31:06;98031.25;;;12.35;100.00
29903;BME280;30288;50.514;9.678;2023-04-23T06:33:13;98024.34;;;12.39;100.00
29903;BME280;30288;50.514;9.678;2023-04-23T06:35:19;98020.78;;;12.43;100.00
29903;BME280;30288;50.514;9.678;2023-04-23T06:37:24;98022.16;;;12.67;100.00
29903;BME280;30288;50.514;9.678;2023-04-23T06:39:33;98022.16;;;12.84;100.00
29903;BME280;30288;50.514;9.678;2023-04-23T06:41:38;98027.16;;;13.03;100.00
29903;BME280;30288;50.514;9.678;2023-04-23T06:43:53;98023.53;;;13.26;100.00
29903;BME280;30288;50.514;9.678;2023-04-23T06:46:15;98018.81;;;13.35;100.00
29903;BME280;30288;50.514;9.678;2023-04-23T06:48:20;98013.84;;;13.17;100.00
29903;BME280;30288;50.514;9.678;2023-04-23T06:50:27;98015.19;;;13.06;100.00
29903;BME280;30288;50.514;9.678;2023-04-23T06:52:32;98015.34;;;13.21;100.00
29903;BME280;30288;50.514;9.678;2023-04-23T06:54:39;98013.97;;;13.48;100.00
29903;BME280;30288;50.514;9.678;2023-04-23T06:56:45;98014.78;;;13.64;100.00
29903;BME280;30288;50.514;9.678;2023-04-23T06:58:52;98016.53;;;13.79;100.00
29903;BME280;30288;50.514;9.678;2023-04-23T07:00:57;98008.72;;;14.15;100.00
29903;BME280;30288;50.514;9.678;2023-04-23T07:03:08;98022.03;;;14.34;100.00
29903;BME280;30288;50.514;9.678;2023-04-23T07:05:15;98015.47;;;14.46;100.00
29903;BME280;30288;50.514;9.678;2023-04-23T07:07:21;98015.97;;;14.53;100.00
29903;BME280;30288;50.514;9.678;2023-04-23T07:09:27;98004.69;;;14.58;100.00
29903;BME280;30288;50.514;9.678;2023-04-23T07:11:35;98009.75;;;14.58;100.00
29903;BME280;30288;50.514;9.678;2023-04-23T07:13:41;98004.47;;;14.77;100.00
29903;BME280;30288;50.514;9.678;2023-04-23T07:15:46;98014.91;;;14.86;100.00
29903;BME280;30288;50.514;9.678;2023-04-23T07:17:51;98006.56;;;14.84;100.00
29903;BME280;30288;50.514;9.678;2023-04-23T07:19:57;98016.00;;;14.82;100.00
29903;BME280;30288;50.514;9.678;2023-04-23T07:22:05;98012.19;;;14.89;100.00
29903;BME280;30288;50.514;9.678;2023-04-23T07:24:10;98012.41;;;15.01;100.00
29903;BME280;30288;50.514;9.678;2023-04-23T07:26:16;98010.69;;;14.71;100.00
29903;BME280;30288;50.514;9.678;2023-04-23T07:28:24;98006.25;;;14.45;100.00
29903;BME280;30288;50.514;9.678;2023-04-23T07:30:30;98003.88;;;14.58;100.00
29903;BME280;30288;50.514;9.678;2023-04-23T07:32:35;98006.97;;;14.63;100.00
29903;BME280;30288;50.514;9.678;2023-04-23T07:34:40;98000.97;;;14.94;100.00
29903;BME280;30288;50.514;9.678;2023-04-23T07:36:46;97997.75;;;15.20;100.00
29903;BME280;30288;50.514;9.678;2023-04-23T07:38:52;97988.16;;;15.39;100.00
29903;BME280;30288;50.514;9.678;2023-04-23T07:40:57;97992.69;;;15.48;100.00
29903;BME280;30288;50.514;9.678;2023-04-23T07:43:02;98000.50;;;15.59;100.00
29903;BME280;30288;50.514;9.678;2023-04-23T07:45:11;97994.59;;;15.59;100.00
29903;BME280;30288;50.514;9.678;2023-04-23T07:47:16;98000.75;;;15.41;100.00
29903;BME280;30288;50.514;9.678;2023-04-23T07:49:21;97996.47;;;15.41;100.00
29903;BME280;30288;50.514;9.678;2023-04-23T07:51:27;98000.09;;;15.23;100.00
29903;BME280;30288;50.514;9.678;2023-04-23T07:53:33;98008.34;;;15.26;100.00
29903;BME280;30288;50.514;9.678;2023-04-23T07:55:39;98001.13;;;15.49;100.00
29903;BME280;30288;50.514;9.678;2023-04-23T07:57:44;98007.66;;;15.81;100.00
29903;BME280;30288;50.514;9.678;2023-04-23T07:59:49;98004.66;;;15.74;100.00
29903;BME280;30288;50.514;9.678;2023-04-23T08:01:57;97997.94;;;15.73;100.00
29903;BME280;30288;50.514;9.678;2023-04-23T08:04:02;97999.38;;;15.77;100.00
29903;BME280;30288;50.514;9.678;2023-04-23T08:06:09;97995.22;;;15.77;100.00
29903;BME280;30288;50.514;9.678;2023-04-23T08:08:14;97989.72;;;15.97;100.00
29903;BME280;30288;50.514;9.678;2023-04-23T08:10:20;97987.88;;;16.13;100.00
29903;BME280;30288;50.514;9.678;2023-04-23T08:12:25;97992.06;;;16.14;100.00
29903;BME280;30288;50.514;9.678;2023-04-23T08:14:31;97979.41;;;16.00;100.00
29903;BME280;30288;50.514;9.678;2023-04-23T08:16:40;97978.63;;;15.85;100.00
29903;BME280;30288;50.514;9.678;2023-04-23T08:18:47;97980.13;;;15.88;100.00
29903;BME280;30288;50.514;9.678;2023-04-23T08:21:06;97978.53;;;15.87;100.00
29903;BME280;30288;50.514;9.678;2023-04-23T08:23:14;97983.91;;;16.09;100.00
29903;BME280;30288;50.514;9.678;2023-04-23T08:25:19;97980.94;;;16.29;100.00
29903;BME280;30288;50.514;9.678;2023-04-23T08:27:24;97972.44;;;16.43;100.00
29903;BME280;30288;50.514;9.678;2023-04-23T08:29:29;97973.88;;;16.47;100.00
29903;BME280;30288;50.514;9.678;2023-04-23T08:31:34;97974.13;;;16.03;100.00
29903;BME280;30288;50.514;9.678;2023-04-23T08:33:40;97976.69;;;15.89;100.00
29903;BME280;30288;50.514;9.678;2023-04-23T08:35:48;97972.59;;;16.27;100.00
29903;BME280;30288;50.514;9.678;2023-04-23T08:37:53;97984.47;;;16.53;100.00
29903;BME280;30288;50.514;9.678;2023-04-23T08:39:59;97986.19;;;16.80;100.00
29903;BME280;30288;50.514;9.678;2023-04-23T08:42:13;97988.63;;;16.94;100.00
29903;BME280;30288;50.514;9.678;2023-04-23T08:44:23;97985.59;;;17.14;100.00
29903;BME280;30288;50.514;9.678;2023-04-23T08:46:30;97992.69;;;16.96;100.00
29903;BME280;30288;50.514;9.678;2023-04-23T08:48:39;97981.94;;;17.43;100.00
29903;BME280;30288;50.514;9.678;2023-04-23T08:50:48;97981.31;;;17.65;100.00
29903;BME280;30288;50.514;9.678;2023-04-23T08:52:54;97988.25;;;17.00;100.00
29903;BME280;30288;50.514;9.678;2023-04-23T08:55:03;97982.06;;;16.65;100.00
29903;BME280;30288;50.514;9.678;2023-04-23T08:57:09;97985.09;;;16.03;100.00
29903;BME280;30288;50.514;9.678;2023-04-23T08:59:14;97985.41;;;15.85;100.00
29903;BME280;30288;50.514;9.678;2023-04-23T09:01:22;97981.78;;;16.42;100.00
29903;BME280;30288;50.514;9.678;2023-04-23T09:03:28;97975.00;;;16.95;100.00
29903;BME280;30288;50.514;9.678;2023-04-23T09:05:33;97972.16;;;16.99;100.00
29903;BME280;30288;50.514;9.678;2023-04-23T09:07:41;97960.13;;;17.39;100.00
29903;BME280;30288;50.514;9.678;2023-04-23T09:09:47;97955.16;;;17.38;100.00
29903;BME280;30288;50.514;9.678;2023-04-23T09:11:52;97958.28;;;17.41;100.00
29903;BME280;30288;50.514;9.678;2023-04-23T09:13:59;97965.03;;;17.42;100.00
29903;BME280;30288;50.514;9.678;2023-04-23T09:16:04;97956.09;;;16.99;100.00
29903;BME280;30288;50.514;9.678;2023-04-23T09:18:10;97967.88;;;17.00;100.00
29903;BME280;30288;50.514;9.678;2023-04-23T09:20:15;97966.66;;;16.93;100.00
29903;BME280;30288;50.514;9.678;2023-04-23T09:22:41;97966.25;;;16.99;100.00
29903;BME280;30288;50.514;9.678;2023-04-23T09:24:48;97957.31;;;17.19;100.00
29903;BME280;30288;50.514;9.678;2023-04-23T09:26:53;97955.56;;;17.32;100.00
29903;BME280;30288;50.514;9.678;2023-04-23T09:28:59;97945.88;;;17.62;100.00
29903;BME280;30288;50.514;9.678;2023-04-23T09:31:05;97945.06;;;17.62;100.00
29903;BME280;30288;50.514;9.678;2023-04-23T09:33:11;97946.31;;;17.80;100.00
29903;BME280;30288;50.514;9.678;2023-04-23T09:35:17;97954.31;;;17.99;100.00
29903;BME280;30288;50.514;9.678;2023-04-23T09:37:25;97938.19;;;18.22;100.00
29903;BME280;30288;50.514;9.678;2023-04-23T09:39:33;97946.28;;;18.16;100.00
29903;BME280;30288;50.514;9.678;2023-04-23T09:41:39;97941.47;;;18.35;100.00
29903;BME280;30288;50.514;9.678;2023-04-23T09:43:47;97935.59;;;18.70;100.00
29903;BME280;30288;50.514;9.678;2023-04-23T09:45:52;97929.38;;;19.30;100.00
29903;BME280;30288;50.514;9.678;2023-04-23T09:47:57;97926.97;;;19.28;100.00
29903;BME280;30288;50.514;9.678;2023-04-23T09:50:04;97928.00;;;19.14;100.00
29903;BME280;30288;50.514;9.678;2023-04-23T09:52:11;97923.69;;;19.04;100.00
29903;BME280;30288;50.514;9.678;2023-04-23T09:54:20;97926.72;;;19.31;100.00
29903;BME280;30288;50.514;9.678;2023-04-23T09:56:29;97932.53;;;19.33;100.00
29903;BME280;30288;50.514;9.678;2023-04-23T09:58:35;97932.19;;;19.49;100.00
29903;BME280;30288;50.514;9.678;2023-04-23T10:00:42;97930.03;;;19.87;100.00
29903;BME280;30288;50.514;9.678;2023-04-23T10:02:49;97927.06;;;19.71;100.00
29903;BME280;30288;50.514;9.678;2023-04-23T10:04:55;97925.19;;;19.40;100.00
29903;BME280;30288;50.514;9.678;2023-04-23T10:07:15;97923.13;;;19.67;100.00
29903;BME280;30288;50.514;9.678;2023-04-23T10:09:22;97917.56;;;19.51;100.00
29903;BME280;30288;50.514;9.678;2023-04-23T10:11:31;97919.66;;;19.46;100.00
29903;BME280;30288;50.514;9.678;2023-04-23T10:13:36;97913.00;;;19.77;100.00
29903;BME280;30288;50.514;9.678;2023-04-23T10:15:45;97916.13;;;19.69;100.00
29903;BME280;30288;50.514;9.678;2023-04-23T10:17:51;97907.94;;;19.86;100.00
29903;BME280;30288;50.514;9.678;2023-04-23T10:19:57;97910.94;;;20.02;100.00
29903;BME280;30288;50.514;9.678;2023-04-23T10:22:07;97909.56;;;20.30;100.00
29903;BME280;30288;50.514;9.678;2023-04-23T10:24:17;97915.00;;;20.58;100.00
29903;BME280;30288;50.514;9.678;2023-04-23T10:26:23;97911.78;;;20.24;100.00
29903;BME280;30288;50.514;9.678;2023-04-23T10:28:32;97916.06;;;19.91;100.00
29903;BME280;30288;50.514;9.678;2023-04-23T10:30:39;97912.75;;;20.12;100.00
29903;BME280;30288;50.514;9.678;2023-04-23T10:32:46;97906.00;;;20.10;100.00
29903;BME280;30288;50.514;9.678;2023-04-23T10:34:53;97914.19;;;20.36;100.00
29903;BME280;30288;50.514;9.678;2023-04-23T10:37:00;97914.19;;;20.04;100.00
29903;BME280;30288;50.514;9.678;2023-04-23T10:39:06;97915.97;;;19.82;100.00
29903;BME280;30288;50.514;9.678;2023-04-23T10:41:16;97913.00;;;20.08;100.00
29903;BME280;30288;50.514;9.678;2023-04-23T10:43:24;97903.81;;;19.74;100.00
29903;BME280;30288;50.514;9.678;2023-04-23T10:45:33;97907.72;;;19.89;100.00
29903;BME280;30288;50.514;9.678;2023-04-23T10:47:38;97905.72;;;19.93;100.00
29903;BME280;30288;50.514;9.678;2023-04-23T10:49:43;97891.63;;;20.09;100.00
29903;BME280;30288;50.514;9.678;2023-04-23T10:51:57;97892.13;;;20.56;100.00
29903;BME280;30288;50.514;9.678;2023-04-23T10:54:06;97897.53;;;20.63;100.00
29903;BME280;30288;50.514;9.678;2023-04-23T10:56:15;97890.59;;;20.74;100.00
29903;BME280;30288;50.514;9.678;2023-04-23T10:58:20;97886.25;;;20.65;100.00
29903;BME280;30288;50.514;9.678;2023-04-23T11:00:26;97882.50;;;21.00;100.00
29903;BME280;30288;50.514;9.678;2023-04-23T11:02:44;97876.56;;;21.29;100.00